X  Close Metar Aviation Weather Data     RPLL Ninoy Aquino International Airport
Temperature
29°C Temperature
24°C Dewpoint
74% Humidity



Wind
8 KM/H
5 MPH
2 M/S
4 KTS



120°
ESE
Current Conditions

Partly Cloudy Partly Cloudy
Pressure 1010.92 (hPa) - 29.85 (inHg)
Visibility 6.2 (mile) - 10 (km)
Airport
Airport-code RPLL

Location: Ninoy Aquino International Airport
Distance: 20 (km)

Metar:
RPLL 131300Z 12004KT 080V170 9999 FEW025 29/24 Q1011 NOSIG RMK A2985

Time: 04-13-2021 9:00 pm CST